sensor_id;sensor_type;location;lat;lon;timestamp;P1;durP1;ratioP1;P2;durP2;ratioP2
74626;SDS011;63132;52.268;5.192;2023-12-04T00:01:45;44.17;;;18.30;;
74626;SDS011;63132;52.268;5.192;2023-12-04T00:04:11;42.38;;;17.08;;
74626;SDS011;63132;52.268;5.192;2023-12-04T00:06:36;41.15;;;18.38;;
74626;SDS011;63132;52.268;5.192;2023-12-04T00:09:02;40.53;;;17.63;;
74626;SDS011;63132;52.268;5.192;2023-12-04T00:11:30;44.38;;;17.30;;
74626;SDS011;63132;52.268;5.192;2023-12-04T00:13:55;43.15;;;16.63;;
74626;SDS011;63132;52.268;5.192;2023-12-04T00:16:21;42.80;;;16.40;;
74626;SDS011;63132;52.268;5.192;2023-12-04T00:18:46;36.77;;;16.63;;
74626;SDS011;63132;52.268;5.192;2023-12-04T00:21:12;38.20;;;15.30;;
74626;SDS011;63132;52.268;5.192;2023-12-04T00:26:03;39.90;;;16.40;;
74626;SDS011;63132;52.268;5.192;2023-12-04T00:28:28;37.22;;;15.70;;
74626;SDS011;63132;52.268;5.192;2023-12-04T00:30:54;42.33;;;16.77;;
74626;SDS011;63132;52.268;5.192;2023-12-04T00:33:19;36.65;;;15.65;;
74626;SDS011;63132;52.268;5.192;2023-12-04T00:35:44;42.13;;;16.67;;
74626;SDS011;63132;52.268;5.192;2023-12-04T00:38:10;38.20;;;16.73;;
74626;SDS011;63132;52.268;5.192;2023-12-04T00:40:35;34.73;;;15.87;;
74626;SDS011;63132;52.268;5.192;2023-12-04T00:43:00;38.60;;;15.57;;
74626;SDS011;63132;52.268;5.192;2023-12-04T00:45:26;39.57;;;16.73;;
74626;SDS011;63132;52.268;5.192;2023-12-04T00:47:51;44.93;;;17.77;;
74626;SDS011;63132;52.268;5.192;2023-12-04T00:50:16;40.90;;;16.23;;
74626;SDS011;63132;52.268;5.192;2023-12-04T00:52:42;40.90;;;16.83;;
74626;SDS011;63132;52.268;5.192;2023-12-04T00:55:08;40.55;;;15.85;;
74626;SDS011;63132;52.268;5.192;2023-12-04T00:57:33;39.77;;;17.50;;
74626;SDS011;63132;52.268;5.192;2023-12-04T00:59:58;41.43;;;16.33;;
74626;SDS011;63132;52.268;5.192;2023-12-04T01:02:24;40.77;;;16.43;;
74626;SDS011;63132;52.268;5.192;2023-12-04T01:04:49;40.00;;;17.50;;
74626;SDS011;63132;52.268;5.192;2023-12-04T01:07:15;30.90;;;14.63;;
74626;SDS011;63132;52.268;5.192;2023-12-04T01:09:40;36.13;;;17.05;;
74626;SDS011;63132;52.268;5.192;2023-12-04T01:12:05;45.07;;;18.80;;
74626;SDS011;63132;52.268;5.192;2023-12-04T01:14:31;44.97;;;17.33;;
74626;SDS011;63132;52.268;5.192;2023-12-04T01:16:56;38.83;;;15.73;;
74626;SDS011;63132;52.268;5.192;2023-12-04T01:19:21;44.77;;;17.13;;
74626;SDS011;63132;52.268;5.192;2023-12-04T01:21:47;37.20;;;16.43;;
74626;SDS011;63132;52.268;5.192;2023-12-04T01:24:13;42.07;;;18.23;;
74626;SDS011;63132;52.268;5.192;2023-12-04T01:26:40;40.45;;;16.88;;
74626;SDS011;63132;52.268;5.192;2023-12-04T01:29:05;40.20;;;16.97;;
74626;SDS011;63132;52.268;5.192;2023-12-04T01:31:30;40.70;;;16.80;;
74626;SDS011;63132;52.268;5.192;2023-12-04T01:33:55;42.13;;;17.03;;
74626;SDS011;63132;52.268;5.192;2023-12-04T01:36:21;40.27;;;17.77;;
74626;SDS011;63132;52.268;5.192;2023-12-04T01:38:46;42.40;;;16.53;;
74626;SDS011;63132;52.268;5.192;2023-12-04T01:41:11;39.67;;;17.17;;
74626;SDS011;63132;52.268;5.192;2023-12-04T01:43:36;39.97;;;16.80;;
74626;SDS011;63132;52.268;5.192;2023-12-04T01:46:02;43.17;;;17.50;;
74626;SDS011;63132;52.268;5.192;2023-12-04T01:50:53;41.60;;;17.08;;
74626;SDS011;63132;52.268;5.192;2023-12-04T01:53:20;39.75;;;16.88;;
74626;SDS011;63132;52.268;5.192;2023-12-04T01:55:46;45.10;;;19.27;;
74626;SDS011;63132;52.268;5.192;2023-12-04T01:58:11;47.22;;;19.10;;
74626;SDS011;63132;52.268;5.192;2023-12-04T02:00:37;44.95;;;17.83;;
74626;SDS011;63132;52.268;5.192;2023-12-04T02:03:02;45.55;;;18.63;;
74626;SDS011;63132;52.268;5.192;2023-12-04T02:05:28;46.88;;;18.63;;
74626;SDS011;63132;52.268;5.192;2023-12-04T02:07:54;46.10;;;19.77;;
74626;SDS011;63132;52.268;5.192;2023-12-04T02:10:20;50.00;;;19.80;;
74626;SDS011;63132;52.268;5.192;2023-12-04T02:12:46;44.40;;;19.95;;
74626;SDS011;63132;52.268;5.192;2023-12-04T02:15:11;49.23;;;20.93;;
74626;SDS011;63132;52.268;5.192;2023-12-04T02:17:38;46.03;;;18.88;;
74626;SDS011;63132;52.268;5.192;2023-12-04T02:20:04;43.97;;;18.73;;
74626;SDS011;63132;52.268;5.192;2023-12-04T02:24:56;47.22;;;18.55;;
74626;SDS011;63132;52.268;5.192;2023-12-04T02:27:28;48.22;;;19.45;;
74626;SDS011;63132;52.268;5.192;2023-12-04T02:30:02;45.63;;;18.63;;
74626;SDS011;63132;52.268;5.192;2023-12-04T02:32:31;46.50;;;18.38;;
74626;SDS011;63132;52.268;5.192;2023-12-04T02:35:02;50.10;;;19.38;;
74626;SDS011;63132;52.268;5.192;2023-12-04T02:37:29;46.15;;;19.33;;
74626;SDS011;63132;52.268;5.192;2023-12-04T02:39:55;47.63;;;19.40;;
74626;SDS011;63132;52.268;5.192;2023-12-04T02:42:21;47.17;;;18.73;;
74626;SDS011;63132;52.268;5.192;2023-12-04T02:44:49;43.40;;;19.58;;
74626;SDS011;63132;52.268;5.192;2023-12-04T02:47:15;49.92;;;19.98;;
74626;SDS011;63132;52.268;5.192;2023-12-04T02:49:41;45.42;;;18.67;;
74626;SDS011;63132;52.268;5.192;2023-12-04T02:52:06;49.23;;;19.33;;
74626;SDS011;63132;52.268;5.192;2023-12-04T02:54:31;44.53;;;18.37;;
74626;SDS011;63132;52.268;5.192;2023-12-04T02:56:57;49.97;;;18.60;;
74626;SDS011;63132;52.268;5.192;2023-12-04T02:59:22;45.33;;;17.55;;
74626;SDS011;63132;52.268;5.192;2023-12-04T03:01:48;48.43;;;19.43;;
74626;SDS011;63132;52.268;5.192;2023-12-04T03:04:15;52.10;;;20.08;;
74626;SDS011;63132;52.268;5.192;2023-12-04T03:06:40;54.57;;;19.33;;
74626;SDS011;63132;52.268;5.192;2023-12-04T03:09:06;42.27;;;18.50;;
74626;SDS011;63132;52.268;5.192;2023-12-04T03:11:31;43.87;;;18.40;;
74626;SDS011;63132;52.268;5.192;2023-12-04T03:13:56;50.30;;;20.40;;
74626;SDS011;63132;52.268;5.192;2023-12-04T03:16:22;45.55;;;18.63;;
74626;SDS011;63132;52.268;5.192;2023-12-04T03:18:48;47.67;;;17.30;;
74626;SDS011;63132;52.268;5.192;2023-12-04T03:21:13;48.17;;;17.60;;
74626;SDS011;63132;52.268;5.192;2023-12-04T03:23:38;43.53;;;17.73;;
74626;SDS011;63132;52.268;5.192;2023-12-04T03:26:04;43.23;;;16.80;;
74626;SDS011;63132;52.268;5.192;2023-12-04T03:28:29;41.60;;;17.25;;
74626;SDS011;63132;52.268;5.192;2023-12-04T03:30:55;42.63;;;16.67;;
74626;SDS011;63132;52.268;5.192;2023-12-04T03:33:20;42.10;;;17.23;;
74626;SDS011;63132;52.268;5.192;2023-12-04T03:35:45;43.58;;;17.60;;
74626;SDS011;63132;52.268;5.192;2023-12-04T03:40:37;45.53;;;16.38;;
74626;SDS011;63132;52.268;5.192;2023-12-04T03:43:02;41.57;;;16.43;;
74626;SDS011;63132;52.268;5.192;2023-12-04T03:45:27;48.53;;;18.03;;
74626;SDS011;63132;52.268;5.192;2023-12-04T03:47:53;42.57;;;18.10;;
74626;SDS011;63132;52.268;5.192;2023-12-04T03:50:18;42.20;;;18.35;;
74626;SDS011;63132;52.268;5.192;2023-12-04T03:52:43;45.10;;;16.57;;
74626;SDS011;63132;52.268;5.192;2023-12-04T03:55:09;38.27;;;17.07;;
74626;SDS011;63132;52.268;5.192;2023-12-04T03:57:34;47.20;;;17.40;;
74626;SDS011;63132;52.268;5.192;2023-12-04T04:00:00;42.67;;;17.97;;
74626;SDS011;63132;52.268;5.192;2023-12-04T04:02:25;41.75;;;16.98;;
74626;SDS011;63132;52.268;5.192;2023-12-04T04:04:50;40.10;;;17.80;;
74626;SDS011;63132;52.268;5.192;2023-12-04T04:07:16;42.97;;;18.70;;
74626;SDS011;63132;52.268;5.192;2023-12-04T04:12:07;40.50;;;17.85;;
74626;SDS011;63132;52.268;5.192;2023-12-04T04:14:33;48.60;;;18.45;;
74626;SDS011;63132;52.268;5.192;2023-12-04T04:16:58;45.17;;;17.57;;
74626;SDS011;63132;52.268;5.192;2023-12-04T04:19:23;44.23;;;18.00;;
74626;SDS011;63132;52.268;5.192;2023-12-04T04:21:48;41.97;;;18.60;;
74626;SDS011;63132;52.268;5.192;2023-12-04T04:24:14;48.70;;;18.47;;
74626;SDS011;63132;52.268;5.192;2023-12-04T04:26:39;39.50;;;17.87;;
74626;SDS011;63132;52.268;5.192;2023-12-04T04:29:04;44.03;;;17.60;;
74626;SDS011;63132;52.268;5.192;2023-12-04T04:31:30;47.90;;;16.63;;
74626;SDS011;63132;52.268;5.192;2023-12-04T04:33:55;44.27;;;18.70;;
74626;SDS011;63132;52.268;5.192;2023-12-04T04:36:20;42.93;;;16.43;;
74626;SDS011;63132;52.268;5.192;2023-12-04T04:38:46;38.27;;;16.90;;
74626;SDS011;63132;52.268;5.192;2023-12-04T04:41:14;42.17;;;16.57;;
74626;SDS011;63132;52.268;5.192;2023-12-04T04:43:42;43.22;;;17.30;;
74626;SDS011;63132;52.268;5.192;2023-12-04T04:46:08;39.45;;;17.65;;
74626;SDS011;63132;52.268;5.192;2023-12-04T04:48:33;38.00;;;16.23;;
74626;SDS011;63132;52.268;5.192;2023-12-04T04:50:58;40.80;;;17.47;;
74626;SDS011;63132;52.268;5.192;2023-12-04T04:53:24;47.00;;;17.43;;
74626;SDS011;63132;52.268;5.192;2023-12-04T04:55:49;39.22;;;18.02;;
74626;SDS011;63132;52.268;5.192;2023-12-04T04:58:16;39.10;;;15.63;;
74626;SDS011;63132;52.268;5.192;2023-12-04T05:00:42;39.08;;;16.48;;
74626;SDS011;63132;52.268;5.192;2023-12-04T05:03:08;41.85;;;16.33;;
74626;SDS011;63132;52.268;5.192;2023-12-04T05:05:33;34.00;;;15.03;;
74626;SDS011;63132;52.268;5.192;2023-12-04T05:07:58;39.57;;;16.23;;
74626;SDS011;63132;52.268;5.192;2023-12-04T05:10:24;36.07;;;16.50;;
74626;SDS011;63132;52.268;5.192;2023-12-04T05:12:49;44.33;;;19.20;;
74626;SDS011;63132;52.268;5.192;2023-12-04T05:15:15;32.08;;;15.25;;
74626;SDS011;63132;52.268;5.192;2023-12-04T05:17:40;36.63;;;16.37;;
74626;SDS011;63132;52.268;5.192;2023-12-04T05:20:05;35.27;;;15.53;;
74626;SDS011;63132;52.268;5.192;2023-12-04T05:22:32;41.08;;;15.90;;
74626;SDS011;63132;52.268;5.192;2023-12-04T05:24:58;34.20;;;13.80;;
74626;SDS011;63132;52.268;5.192;2023-12-04T05:27:23;32.53;;;15.13;;
74626;SDS011;63132;52.268;5.192;2023-12-04T05:29:48;34.37;;;14.13;;
74626;SDS011;63132;52.268;5.192;2023-12-04T05:32:13;31.47;;;15.63;;
74626;SDS011;63132;52.268;5.192;2023-12-04T05:34:39;31.27;;;14.27;;
74626;SDS011;63132;52.268;5.192;2023-12-04T05:37:04;32.50;;;14.43;;
74626;SDS011;63132;52.268;5.192;2023-12-04T05:39:29;31.27;;;14.70;;
74626;SDS011;63132;52.268;5.192;2023-12-04T05:41:55;31.10;;;14.80;;
74626;SDS011;63132;52.268;5.192;2023-12-04T05:44:20;31.33;;;14.83;;
74626;SDS011;63132;52.268;5.192;2023-12-04T05:46:45;32.10;;;13.70;;
74626;SDS011;63132;52.268;5.192;2023-12-04T05:49:10;31.57;;;14.80;;
74626;SDS011;63132;52.268;5.192;2023-12-04T05:51:36;31.23;;;14.87;;
74626;SDS011;63132;52.268;5.192;2023-12-04T05:54:01;28.57;;;13.23;;
74626;SDS011;63132;52.268;5.192;2023-12-04T05:56:26;27.80;;;13.17;;
74626;SDS011;63132;52.268;5.192;2023-12-04T05:58:52;32.20;;;15.53;;
74626;SDS011;63132;52.268;5.192;2023-12-04T06:01:17;30.00;;;14.00;;
74626;SDS011;63132;52.268;5.192;2023-12-04T06:03:43;32.35;;;14.57;;
74626;SDS011;63132;52.268;5.192;2023-12-04T06:06:09;29.13;;;14.80;;
74626;SDS011;63132;52.268;5.192;2023-12-04T06:08:34;27.80;;;14.03;;
74626;SDS011;63132;52.268;5.192;2023-12-04T06:10:59;29.20;;;12.73;;
74626;SDS011;63132;52.268;5.192;2023-12-04T06:13:24;24.90;;;12.37;;
74626;SDS011;63132;52.268;5.192;2023-12-04T06:15:50;26.73;;;12.90;;
74626;SDS011;63132;52.268;5.192;2023-12-04T06:18:15;26.40;;;12.87;;
74626;SDS011;63132;52.268;5.192;2023-12-04T06:20:40;27.73;;;13.27;;
74626;SDS011;63132;52.268;5.192;2023-12-04T06:23:06;32.03;;;14.57;;
74626;SDS011;63132;52.268;5.192;2023-12-04T06:25:31;31.65;;;13.82;;
74626;SDS011;63132;52.268;5.192;2023-12-04T06:27:57;31.40;;;14.18;;
74626;SDS011;63132;52.268;5.192;2023-12-04T06:30:23;29.60;;;14.35;;
74626;SDS011;63132;52.268;5.192;2023-12-04T06:32:48;29.15;;;15.48;;
74626;SDS011;63132;52.268;5.192;2023-12-04T06:35:14;27.02;;;13.40;;
74626;SDS011;63132;52.268;5.192;2023-12-04T06:37:40;27.98;;;13.60;;
74626;SDS011;63132;52.268;5.192;2023-12-04T06:40:06;26.83;;;12.98;;
74626;SDS011;63132;52.268;5.192;2023-12-04T06:42:37;28.42;;;13.00;;
74626;SDS011;63132;52.268;5.192;2023-12-04T06:45:02;28.92;;;12.75;;
74626;SDS011;63132;52.268;5.192;2023-12-04T06:47:29;23.83;;;12.93;;
74626;SDS011;63132;52.268;5.192;2023-12-04T06:49:56;24.60;;;11.90;;
74626;SDS011;63132;52.268;5.192;2023-12-04T06:52:22;27.00;;;12.60;;
74626;SDS011;63132;52.268;5.192;2023-12-04T06:54:47;24.80;;;13.00;;
74626;SDS011;63132;52.268;5.192;2023-12-04T06:57:12;26.20;;;13.53;;
74626;SDS011;63132;52.268;5.192;2023-12-04T06:59:40;24.35;;;12.15;;
74626;SDS011;63132;52.268;5.192;2023-12-04T07:02:06;25.35;;;11.95;;
74626;SDS011;63132;52.268;5.192;2023-12-04T07:04:32;23.53;;;12.47;;
74626;SDS011;63132;52.268;5.192;2023-12-04T07:06:57;23.53;;;12.33;;
74626;SDS011;63132;52.268;5.192;2023-12-04T07:09:26;21.83;;;10.90;;
74626;SDS011;63132;52.268;5.192;2023-12-04T07:11:52;22.55;;;11.32;;
74626;SDS011;63132;52.268;5.192;2023-12-04T07:14:18;20.33;;;10.98;;
74626;SDS011;63132;52.268;5.192;2023-12-04T07:16:43;23.43;;;11.80;;
74626;SDS011;63132;52.268;5.192;2023-12-04T07:19:09;23.35;;;13.10;;
74626;SDS011;63132;52.268;5.192;2023-12-04T07:24:01;26.08;;;11.57;;
74626;SDS011;63132;52.268;5.192;2023-12-04T07:26:26;31.83;;;13.43;;
74626;SDS011;63132;52.268;5.192;2023-12-04T07:28:51;26.33;;;13.43;;
74626;SDS011;63132;52.268;5.192;2023-12-04T07:31:16;21.43;;;11.50;;
74626;SDS011;63132;52.268;5.192;2023-12-04T07:33:42;23.15;;;11.68;;
74626;SDS011;63132;52.268;5.192;2023-12-04T07:36:08;21.27;;;10.93;;
74626;SDS011;63132;52.268;5.192;2023-12-04T07:38:33;23.17;;;10.43;;
74626;SDS011;63132;52.268;5.192;2023-12-04T07:40:59;21.98;;;11.63;;
74626;SDS011;63132;52.268;5.192;2023-12-04T07:43:24;20.23;;;10.47;;
74626;SDS011;63132;52.268;5.192;2023-12-04T07:45:49;21.50;;;10.70;;
74626;SDS011;63132;52.268;5.192;2023-12-04T07:48:14;23.93;;;11.03;;
74626;SDS011;63132;52.268;5.192;2023-12-04T07:50:41;25.98;;;11.15;;
74626;SDS011;63132;52.268;5.192;2023-12-04T07:53:07;22.83;;;11.40;;
74626;SDS011;63132;52.268;5.192;2023-12-04T07:55:34;21.88;;;11.73;;
74626;SDS011;63132;52.268;5.192;2023-12-04T07:58:00;23.17;;;11.68;;
74626;SDS011;63132;52.268;5.192;2023-12-04T08:00:25;21.40;;;11.60;;
74626;SDS011;63132;52.268;5.192;2023-12-04T08:02:51;21.35;;;11.38;;
74626;SDS011;63132;52.268;5.192;2023-12-04T08:05:16;17.77;;;9.97;;
74626;SDS011;63132;52.268;5.192;2023-12-04T08:07:42;26.65;;;13.00;;
74626;SDS011;63132;52.268;5.192;2023-12-04T08:10:07;20.37;;;10.83;;
74626;SDS011;63132;52.268;5.192;2023-12-04T08:12:33;21.75;;;9.95;;
74626;SDS011;63132;52.268;5.192;2023-12-04T08:14:59;19.97;;;10.80;;
74626;SDS011;63132;52.268;5.192;2023-12-04T08:17:24;19.13;;;9.60;;
74626;SDS011;63132;52.268;5.192;2023-12-04T08:19:49;18.63;;;10.57;;
74626;SDS011;63132;52.268;5.192;2023-12-04T08:22:15;20.57;;;10.53;;
74626;SDS011;63132;52.268;5.192;2023-12-04T08:24:40;20.10;;;9.40;;
74626;SDS011;63132;52.268;5.192;2023-12-04T08:27:05;22.37;;;10.47;;
74626;SDS011;63132;52.268;5.192;2023-12-04T08:29:31;18.67;;;9.53;;
74626;SDS011;63132;52.268;5.192;2023-12-04T08:31:56;18.57;;;9.30;;
74626;SDS011;63132;52.268;5.192;2023-12-04T08:34:21;19.43;;;10.97;;
74626;SDS011;63132;52.268;5.192;2023-12-04T08:36:46;21.17;;;10.50;;
74626;SDS011;63132;52.268;5.192;2023-12-04T08:39:12;16.70;;;9.50;;
74626;SDS011;63132;52.268;5.192;2023-12-04T08:41:38;18.38;;;9.82;;
74626;SDS011;63132;52.268;5.192;2023-12-04T08:44:03;19.40;;;8.70;;
74626;SDS011;63132;52.268;5.192;2023-12-04T08:46:29;18.35;;;8.75;;
74626;SDS011;63132;52.268;5.192;2023-12-04T08:48:54;18.20;;;9.07;;
74626;SDS011;63132;52.268;5.192;2023-12-04T08:51:19;17.07;;;8.90;;
74626;SDS011;63132;52.268;5.192;2023-12-04T08:53:44;16.67;;;8.87;;
74626;SDS011;63132;52.268;5.192;2023-12-04T08:56:10;15.80;;;8.90;;
74626;SDS011;63132;52.268;5.192;2023-12-04T08:58:36;14.50;;;8.47;;
74626;SDS011;63132;52.268;5.192;2023-12-04T09:01:02;17.08;;;9.18;;
74626;SDS011;63132;52.268;5.192;2023-12-04T09:03:28;16.40;;;8.68;;
74626;SDS011;63132;52.268;5.192;2023-12-04T09:05:54;18.98;;;8.63;;
74626;SDS011;63132;52.268;5.192;2023-12-04T09:08:21;16.52;;;8.80;;
74626;SDS011;63132;52.268;5.192;2023-12-04T09:10:47;12.80;;;7.53;;
74626;SDS011;63132;52.268;5.192;2023-12-04T09:13:13;17.50;;;8.80;;
74626;SDS011;63132;52.268;5.192;2023-12-04T09:15:39;15.75;;;7.95;;
74626;SDS011;63132;52.268;5.192;2023-12-04T09:18:04;15.27;;;7.80;;
74626;SDS011;63132;52.268;5.192;2023-12-04T09:20:30;16.63;;;8.10;;
74626;SDS011;63132;52.268;5.192;2023-12-04T09:22:55;16.23;;;8.20;;
74626;SDS011;63132;52.268;5.192;2023-12-04T09:25:20;14.87;;;7.57;;
74626;SDS011;63132;52.268;5.192;2023-12-04T09:27:46;14.57;;;7.97;;
74626;SDS011;63132;52.268;5.192;2023-12-04T09:30:11;15.30;;;7.67;;
74626;SDS011;63132;52.268;5.192;2023-12-04T09:32:37;13.00;;;7.47;;
74626;SDS011;63132;52.268;5.192;2023-12-04T09:35:02;13.07;;;7.27;;
74626;SDS011;63132;52.268;5.192;2023-12-04T09:37:28;16.17;;;7.68;;
74626;SDS011;63132;52.268;5.192;2023-12-04T09:39:53;14.50;;;6.88;;
74626;SDS011;63132;52.268;5.192;2023-12-04T09:42:18;15.77;;;7.47;;
74626;SDS011;63132;52.268;5.192;2023-12-04T09:44:44;12.57;;;6.77;;
74626;SDS011;63132;52.268;5.192;2023-12-04T09:47:14;14.32;;;6.85;;
74626;SDS011;63132;52.268;5.192;2023-12-04T09:49:42;16.98;;;8.55;;
74626;SDS011;63132;52.268;5.192;2023-12-04T09:52:09;15.20;;;8.00;;
74626;SDS011;63132;52.268;5.192;2023-12-04T09:54:35;15.93;;;7.70;;
74626;SDS011;63132;52.268;5.192;2023-12-04T09:57:01;19.00;;;8.63;;
74626;SDS011;63132;52.268;5.192;2023-12-04T09:59:29;13.15;;;7.03;;
74626;SDS011;63132;52.268;5.192;2023-12-04T10:01:55;13.93;;;7.38;;
74626;SDS011;63132;52.268;5.192;2023-12-04T10:04:21;17.23;;;8.18;;
74626;SDS011;63132;52.268;5.192;2023-12-04T10:06:48;12.48;;;7.05;;
74626;SDS011;63132;52.268;5.192;2023-12-04T10:09:16;14.77;;;7.78;;
74626;SDS011;63132;52.268;5.192;2023-12-04T10:11:43;13.65;;;6.88;;
74626;SDS011;63132;52.268;5.192;2023-12-04T10:14:16;12.13;;;6.45;;
74626;SDS011;63132;52.268;5.192;2023-12-04T10:16:44;13.82;;;6.88;;
74626;SDS011;63132;52.268;5.192;2023-12-04T10:19:16;12.18;;;6.93;;
74626;SDS011;63132;52.268;5.192;2023-12-04T10:21:44;12.73;;;6.97;;
74626;SDS011;63132;52.268;5.192;2023-12-04T10:24:11;15.63;;;6.97;;
74626;SDS011;63132;52.268;5.192;2023-12-04T10:26:36;11.43;;;6.20;;
74626;SDS011;63132;52.268;5.192;2023-12-04T10:29:02;10.87;;;6.23;;
74626;SDS011;63132;52.268;5.192;2023-12-04T10:31:33;12.75;;;6.93;;
74626;SDS011;63132;52.268;5.192;2023-12-04T10:33:59;10.98;;;6.22;;
74626;SDS011;63132;52.268;5.192;2023-12-04T10:36:25;12.07;;;7.22;;
74626;SDS011;63132;52.268;5.192;2023-12-04T10:38:59;15.83;;;6.63;;
74626;SDS011;63132;52.268;5.192;2023-12-04T10:41:25;15.13;;;7.05;;
74626;SDS011;63132;52.268;5.192;2023-12-04T10:43:51;10.98;;;6.15;;
74626;SDS011;63132;52.268;5.192;2023-12-04T10:46:16;12.47;;;6.40;;
74626;SDS011;63132;52.268;5.192;2023-12-04T10:48:44;13.65;;;6.97;;
74626;SDS011;63132;52.268;5.192;2023-12-04T10:51:10;11.45;;;6.60;;
74626;SDS011;63132;52.268;5.192;2023-12-04T10:53:37;12.10;;;6.25;;
74626;SDS011;63132;52.268;5.192;2023-12-04T10:56:06;12.75;;;6.65;;
74626;SDS011;63132;52.268;5.192;2023-12-04T10:58:33;12.27;;;6.57;;
74626;SDS011;63132;52.268;5.192;2023-12-04T11:01:01;13.18;;;7.40;;
74626;SDS011;63132;52.268;5.192;2023-12-04T11:06:01;15.80;;;7.10;;
74626;SDS011;63132;52.268;5.192;2023-12-04T11:08:32;14.27;;;7.57;;
74626;SDS011;63132;52.268;5.192;2023-12-04T11:11:04;13.57;;;7.10;;
74626;SDS011;63132;52.268;5.192;2023-12-04T11:13:40;13.60;;;7.55;;
74626;SDS011;63132;52.268;5.192;2023-12-04T11:19:04;12.95;;;6.97;;
74626;SDS011;63132;52.268;5.192;2023-12-04T11:21:43;16.25;;;7.35;;
74626;SDS011;63132;52.268;5.192;2023-12-04T11:24:11;14.15;;;7.35;;
74626;SDS011;63132;52.268;5.192;2023-12-04T11:26:37;15.00;;;7.32;;
74626;SDS011;63132;52.268;5.192;2023-12-04T11:29:05;12.75;;;7.05;;
74626;SDS011;63132;52.268;5.192;2023-12-04T11:31:31;14.70;;;7.05;;
74626;SDS011;63132;52.268;5.192;2023-12-04T11:34:01;13.03;;;7.13;;
74626;SDS011;63132;52.268;5.192;2023-12-04T11:36:27;14.32;;;6.75;;
74626;SDS011;63132;52.268;5.192;2023-12-04T11:38:53;17.30;;;8.40;;
74626;SDS011;63132;52.268;5.192;2023-12-04T11:41:18;17.20;;;7.97;;
74626;SDS011;63132;52.268;5.192;2023-12-04T11:43:45;15.60;;;7.70;;
74626;SDS011;63132;52.268;5.192;2023-12-04T11:46:12;20.23;;;8.57;;
74626;SDS011;63132;52.268;5.192;2023-12-04T11:48:39;17.95;;;8.50;;
74626;SDS011;63132;52.268;5.192;2023-12-04T11:51:05;17.20;;;7.70;;
74626;SDS011;63132;52.268;5.192;2023-12-04T11:53:32;14.25;;;7.50;;
74626;SDS011;63132;52.268;5.192;2023-12-04T11:56:08;18.52;;;8.25;;
74626;SDS011;63132;52.268;5.192;2023-12-04T11:58:43;15.27;;;7.55;;
74626;SDS011;63132;52.268;5.192;2023-12-04T12:01:09;14.65;;;7.75;;
74626;SDS011;63132;52.268;5.192;2023-12-04T12:03:34;14.50;;;7.93;;
74626;SDS011;63132;52.268;5.192;2023-12-04T12:06:00;15.40;;;7.90;;
74626;SDS011;63132;52.268;5.192;2023-12-04T12:08:25;18.77;;;8.55;;
74626;SDS011;63132;52.268;5.192;2023-12-04T12:10:53;15.05;;;7.53;;
74626;SDS011;63132;52.268;5.192;2023-12-04T12:13:19;15.50;;;8.63;;
74626;SDS011;63132;52.268;5.192;2023-12-04T12:15:48;15.23;;;7.70;;
74626;SDS011;63132;52.268;5.192;2023-12-04T12:18:15;15.40;;;8.80;;
74626;SDS011;63132;52.268;5.192;2023-12-04T12:20:41;16.17;;;9.00;;
74626;SDS011;63132;52.268;5.192;2023-12-04T12:23:06;19.17;;;9.15;;
74626;SDS011;63132;52.268;5.192;2023-12-04T12:25:32;16.98;;;8.77;;
74626;SDS011;63132;52.268;5.192;2023-12-04T12:27:57;15.80;;;7.87;;
74626;SDS011;63132;52.268;5.192;2023-12-04T12:30:27;16.95;;;9.13;;
74626;SDS011;63132;52.268;5.192;2023-12-04T12:32:53;19.05;;;9.63;;
74626;SDS011;63132;52.268;5.192;2023-12-04T12:35:18;15.27;;;8.73;;
74626;SDS011;63132;52.268;5.192;2023-12-04T12:37:43;17.97;;;10.00;;
74626;SDS011;63132;52.268;5.192;2023-12-04T12:40:09;17.97;;;8.93;;
74626;SDS011;63132;52.268;5.192;2023-12-04T12:42:35;16.17;;;8.60;;
74626;SDS011;63132;52.268;5.192;2023-12-04T12:45:03;16.38;;;9.45;;
74626;SDS011;63132;52.268;5.192;2023-12-04T12:47:29;18.40;;;8.75;;
74626;SDS011;63132;52.268;5.192;2023-12-04T12:49:55;20.38;;;9.80;;
74626;SDS011;63132;52.268;5.192;2023-12-04T12:52:20;17.37;;;9.20;;
74626;SDS011;63132;52.268;5.192;2023-12-04T12:54:45;16.63;;;9.63;;
74626;SDS011;63132;52.268;5.192;2023-12-04T12:57:11;17.07;;;9.53;;
74626;SDS011;63132;52.268;5.192;2023-12-04T12:59:40;16.02;;;9.25;;
74626;SDS011;63132;52.268;5.192;2023-12-04T13:02:05;14.40;;;8.30;;
74626;SDS011;63132;52.268;5.192;2023-12-04T13:04:41;18.80;;;8.85;;
74626;SDS011;63132;52.268;5.192;2023-12-04T13:07:06;17.92;;;9.68;;
74626;SDS011;63132;52.268;5.192;2023-12-04T13:09:32;21.92;;;10.73;;
74626;SDS011;63132;52.268;5.192;2023-12-04T13:12:00;15.95;;;9.15;;
74626;SDS011;63132;52.268;5.192;2023-12-04T13:14:26;17.02;;;9.15;;
74626;SDS011;63132;52.268;5.192;2023-12-04T13:16:51;18.83;;;10.03;;
74626;SDS011;63132;52.268;5.192;2023-12-04T13:19:16;20.47;;;9.77;;
74626;SDS011;63132;52.268;5.192;2023-12-04T13:21:42;19.20;;;9.60;;
74626;SDS011;63132;52.268;5.192;2023-12-04T13:26:34;18.00;;;9.27;;
74626;SDS011;63132;52.268;5.192;2023-12-04T13:28:59;20.23;;;9.30;;
74626;SDS011;63132;52.268;5.192;2023-12-04T13:31:24;19.47;;;9.53;;
74626;SDS011;63132;52.268;5.192;2023-12-04T13:33:50;16.15;;;8.57;;
74626;SDS011;63132;52.268;5.192;2023-12-04T13:36:15;18.63;;;9.37;;
74626;SDS011;63132;52.268;5.192;2023-12-04T13:38:41;17.00;;;9.23;;
74626;SDS011;63132;52.268;5.192;2023-12-04T13:41:06;19.92;;;10.20;;
74626;SDS011;63132;52.268;5.192;2023-12-04T13:43:50;17.63;;;9.77;;
74626;SDS011;63132;52.268;5.192;2023-12-04T13:46:16;18.10;;;9.57;;
74626;SDS011;63132;52.268;5.192;2023-12-04T13:48:41;19.17;;;10.80;;
74626;SDS011;63132;52.268;5.192;2023-12-04T13:51:08;17.70;;;9.37;;
74626;SDS011;63132;52.268;5.192;2023-12-04T13:53:34;18.23;;;9.75;;
74626;SDS011;63132;52.268;5.192;2023-12-04T13:56:00;18.83;;;9.73;;
74626;SDS011;63132;52.268;5.192;2023-12-04T13:58:46;19.80;;;10.43;;
74626;SDS011;63132;52.268;5.192;2023-12-04T14:01:14;18.35;;;8.85;;
74626;SDS011;63132;52.268;5.192;2023-12-04T14:03:43;18.73;;;10.10;;
74626;SDS011;63132;52.268;5.192;2023-12-04T14:06:09;18.10;;;10.55;;
74626;SDS011;63132;52.268;5.192;2023-12-04T14:08:34;19.17;;;9.98;;
74626;SDS011;63132;52.268;5.192;2023-12-04T14:11:00;20.70;;;9.77;;
74626;SDS011;63132;52.268;5.192;2023-12-04T14:13:27;19.10;;;10.07;;
74626;SDS011;63132;52.268;5.192;2023-12-04T14:15:52;17.77;;;9.17;;
74626;SDS011;63132;52.268;5.192;2023-12-04T14:18:17;19.07;;;10.03;;
74626;SDS011;63132;52.268;5.192;2023-12-04T14:20:42;16.90;;;9.33;;
74626;SDS011;63132;52.268;5.192;2023-12-04T14:23:08;19.07;;;10.70;;
74626;SDS011;63132;52.268;5.192;2023-12-04T14:25:33;19.33;;;10.00;;
74626;SDS011;63132;52.268;5.192;2023-12-04T14:27:59;17.38;;;10.13;;
74626;SDS011;63132;52.268;5.192;2023-12-04T14:30:25;18.10;;;9.82;;
74626;SDS011;63132;52.268;5.192;2023-12-04T14:32:52;19.73;;;9.80;;
74626;SDS011;63132;52.268;5.192;2023-12-04T14:35:17;17.52;;;10.18;;
74626;SDS011;63132;52.268;5.192;2023-12-04T14:37:43;19.33;;;10.13;;
74626;SDS011;63132;52.268;5.192;2023-12-04T14:40:08;18.20;;;9.20;;
74626;SDS011;63132;52.268;5.192;2023-12-04T14:42:34;20.17;;;10.07;;